Sea Thames — V2BV1 — position and weather

sailwx.info

Track history (hours):
 
Tides and Currents Weather Stations Pressure Air Temp Water Temp Dewpoint Dewpoint Depression Visibility Wind Speed Wind Dir Waves Ship Positions

Sea Thames

Last reported at 2016-May-23 18:10 UTC. Time now 2016-May-25 09:15 UTC.
Position N 53°43' W 000°37'.

Length 87 m; draft 3.5 m.

Type: Cargo ship. MMSI: 304933000.

Date/timePositionNaut miles runAvg speedWind from/ knotsBaromVisibWave heightAir tempDewpointWater temp
2016-May-23 18:10N 53°43' W 000°37'6 9.4
2016-May-23 17:34N 53°42' W 000°27'1010.1
2016-May-23 16:33N 53°39' W 000°11'1211.6
2016-May-23 15:33N 53°34' E 000°07'8 7.9
2016-May-23 14:33N 53°33' E 000°20'4 3.2
2016-May-23 13:22N 53°36' E 000°25'0 0.0
2016-May-23 11:12N 53°36' E 000°24'0 0.0
2016-May-23 10:28N 53°36' E 000°24'0 0.0
2016-May-23 09:27N 53°36' E 000°25'0 0.0
2016-May-23 01:15N 53°36' E 000°25'0 0.0
2016-May-23 00:22N 53°36' E 000°25'0 0.0
2016-May-22 23:22N 53°36' E 000°25'0 0.0
2016-May-22 22:32N 53°36' E 000°25'0 0.0
2016-May-22 21:16N 53°36' E 000°25'0 0.0
2016-May-22 20:23N 53°36' E 000°25'0 0.0
2016-May-22 16:16N 53°36' E 000°25'0 0.0
2016-May-22 15:33N 53°36' E 000°25'0 0.0
2016-May-22 14:30N 53°36' E 000°25'0 0.1
2016-May-22 13:06N 53°36' E 000°25'0 0.0
2016-May-22 12:21N 53°36' E 000°25'0 0.0
2016-May-22 11:24N 53°36' E 000°25'0 0.0
2016-May-22 10:32N 53°36' E 000°25'0 0.0
2016-May-22 09:31N 53°36' E 000°25'0 0.1
2016-May-22 08:33N 53°36' E 000°25'0 0.0
2016-May-22 07:21N 53°36' E 000°25'0 0.0
2016-May-22 01:31N 53°36' E 000°25'0 0.0
2016-May-22 00:31N 53°36' E 000°25'0 0.0
2016-May-21 23:28N 53°36' E 000°25'0 0.0
2016-May-21 21:23N 53°36' E 000°25'0 0.0
2016-May-21 13:26N 53°36' E 000°25'0 0.0
2016-May-21 11:22N 53°36' E 000°25'0 0.0
2016-May-21 09:26N 53°36' E 000°25'30 6.0
2016-May-21 04:25N 53°18' E 001°04'14 7.1
2016-May-21 02:30N 53°09' E 001°23'9 9.6
2016-May-21 01:33N 53°04' E 001°35'10 9.6
2016-May-21 00:33N 52°59' E 001°49'9 9.3
2016-May-20 23:33N 52°55' E 002°02'25 6.1
2016-May-20 19:27N 52°32' E 002°17'67 6.5
2016-May-20 09:08N 51°37' E 003°22'5 8.2
2016-May-20 08:32N 51°33' E 003°25'7 7.4
2016-May-20 07:33N 51°27' E 003°32'7 7.1
2016-May-20 06:33N 51°24' E 003°43'9 8.9
2016-May-20 05:33N 51°24' E 003°57'7 7.4
2016-May-20 04:33N 51°23' E 004°09'8 8.2
2016-May-20 03:33N 51°17' E 004°19'2 1.7
2016-May-20 02:33N 51°16' E 004°21'2 2.4
2016-May-20 01:33N 51°16' E 004°24'0 0.0
2016-May-20 00:32N 51°16' E 004°24'0 0.0
2016-May-19 23:33N 51°16' E 004°24'1 1.0
2016-May-19 22:33N 51°15' E 004°24'4 4.1
2016-May-19 21:33N 51°14' E 004°31'5 3.3
2016-May-19 20:11N 51°12' E 004°37'  
2016-May-16 23:19N 51°12' E 004°36'3 1.9
2016-May-16 21:31N 51°14' E 004°31'1 0.7
2016-May-16 20:28N 51°14' E 004°30'3 3.1
2016-May-16 19:33N 51°14' E 004°26'1 1.3
2016-May-16 18:28N 51°15' E 004°24'0 0.0
2016-May-16 17:33N 51°15' E 004°24'0 0.0
2016-May-16 16:33N 51°15' E 004°24'0 0.0
2016-May-16 15:24N 51°15' E 004°24'0 0.0
2016-May-16 14:26N 51°15' E 004°24'0 0.0
2016-May-16 13:26N 51°15' E 004°24'0 0.0
2016-May-16 12:31N 51°15' E 004°24'0 0.0
2016-May-16 11:32N 51°15' E 004°24'0 0.0
2016-May-16 10:31N 51°15' E 004°24'0 0.0
2016-May-16 09:29N 51°15' E 004°24'0 0.0
2016-May-16 08:31N 51°15' E 004°24'0 0.0
2016-May-16 07:27N 51°15' E 004°24'0 0.0
2016-May-16 06:31N 51°15' E 004°24'0 0.0
2016-May-16 05:27N 51°15' E 004°24'0 0.0
2016-May-16 04:32N 51°15' E 004°24'0 0.0
2016-May-16 03:30N 51°15' E 004°24'0 0.0
2016-May-16 02:32N 51°15' E 004°24'0 0.0
2016-May-16 01:27N 51°15' E 004°24'0 0.0
2016-May-16 00:33N 51°15' E 004°24'0 0.0
2016-May-15 23:29N 51°15' E 004°24'0 0.0
2016-May-15 22:28N 51°15' E 004°24'0 0.0
2016-May-15 21:31N 51°15' E 004°24'0 0.0
2016-May-15 20:30N 51°15' E 004°24'0 0.0
2016-May-15 19:32N 51°15' E 004°24'0 0.0
2016-May-15 18:29N 51°15' E 004°24'0 0.0
2016-May-15 17:34N 51°15' E 004°24'0 0.0
2016-May-15 16:33N 51°15' E 004°24'0 0.0
2016-May-15 15:32N 51°15' E 004°24'0 0.0
2016-May-15 14:30N 51°15' E 004°24'0 0.0
2016-May-15 13:34N 51°15' E 004°24'0 0.0
2016-May-15 12:32N 51°15' E 004°24'0 0.0
2016-May-15 11:33N 51°15' E 004°24'0 0.0
2016-May-15 10:32N 51°15' E 004°24'0 0.0
2016-May-15 09:33N 51°15' E 004°24'0 0.0
2016-May-15 08:30N 51°15' E 004°24'0 0.0
2016-May-15 07:32N 51°15' E 004°24'0 0.0
2016-May-15 06:30N 51°15' E 004°24'0 0.0
2016-May-15 05:32N 51°15' E 004°24'0 0.0
2016-May-15 04:29N 51°15' E 004°24'0 0.0
2016-May-15 03:32N 51°15' E 004°24'0 0.0
2016-May-15 02:30N 51°15' E 004°24'0 0.0
2016-May-15 01:26N 51°15' E 004°24'0 0.0
2016-May-15 00:33N 51°15' E 004°24'0 0.0
2016-May-14 23:32N 51°15' E 004°24'0 0.0
2016-May-14 22:31N 51°15' E 004°24'0 0.0
2016-May-14 21:34N 51°15' E 004°24'3 3.0
2016-May-14 20:34N 51°17' E 004°20'0 0.0
2016-May-14 19:33N 51°17' E 004°20'5 4.6
2016-May-14 18:33N 51°20' E 004°16'7 7.4
2016-May-14 17:33N 51°22' E 004°05'6 5.6
2016-May-14 16:33N 51°22' E 003°56'9 8.8
2016-May-14 15:33N 51°24' E 003°42'9 9.3
2016-May-14 14:33N 51°25' E 003°27'7 7.6
2016-May-14 13:33N 51°23' E 003°15'8 6.9
2016-May-14 12:27N 51°22' E 003°03'8 7.4
2016-May-14 11:25N 51°21' E 002°51'6 5.7
2016-May-14 10:20N 51°21' E 002°41'3 4.0
2016-May-14 09:32N 51°21' E 002°36'3 3.0
2016-May-14 08:26N 51°22' E 002°30'3 2.7
2016-May-14 07:26N 51°21' E 002°26'6 4.1
2016-May-14 06:05N 51°18' E 002°18'11 7.4
2016-May-14 04:33N 51°13' E 002°03'7 6.9
2016-May-14 03:33N 51°09' E 001°53'6 6.1
2016-May-14 02:33N 51°06' E 001°45'5 5.1
2016-May-14 01:33N 51°02' E 001°40'5 4.3
2016-May-14 00:28N 50°58' E 001°35'4 4.2
2016-May-13 23:26N 50°55' E 001°30'  
Track history (hours):
 
Tides and Currents Weather Stations Pressure Air Temp Water Temp Dewpoint Dewpoint Depression Visibility Wind Speed Wind Dir Waves Ship Positions

Sea Thames

Last reported at 2016-May-23 18:10 UTC. Time now 2016-May-25 09:16 UTC.
Position N 53°43' W 000°37'.

Length 87 m; draft 3.5 m.

Type: Cargo ship. MMSI: 304933000.

Date/timePositionNaut miles runAvg speedWind from/ knotsBaromVisibWave heightAir tempDewpointWater temp
2016-May-23 18:10N 53°43' W 000°37'6 9.4
2016-May-23 17:34N 53°42' W 000°27'1010.1
2016-May-23 16:33N 53°39' W 000°11'1211.6
2016-May-23 15:33N 53°34' E 000°07'8 7.9
2016-May-23 14:33N 53°33' E 000°20'4 3.2
2016-May-23 13:22N 53°36' E 000°25'0 0.0
2016-May-23 11:12N 53°36' E 000°24'0 0.0
2016-May-23 10:28N 53°36' E 000°24'0 0.0
2016-May-23 09:27N 53°36' E 000°25'0 0.0
2016-May-23 01:15N 53°36' E 000°25'0 0.0
2016-May-23 00:22N 53°36' E 000°25'0 0.0
2016-May-22 23:22N 53°36' E 000°25'0 0.0
2016-May-22 22:32N 53°36' E 000°25'0 0.0
2016-May-22 21:16N 53°36' E 000°25'0 0.0
2016-May-22 20:23N 53°36' E 000°25'0 0.0
2016-May-22 16:16N 53°36' E 000°25'0 0.0
2016-May-22 15:33N 53°36' E 000°25'0 0.0
2016-May-22 14:30N 53°36' E 000°25'0 0.1
2016-May-22 13:06N 53°36' E 000°25'0 0.0
2016-May-22 12:21N 53°36' E 000°25'0 0.0
2016-May-22 11:24N 53°36' E 000°25'0 0.0
2016-May-22 10:32N 53°36' E 000°25'0 0.0
2016-May-22 09:31N 53°36' E 000°25'0 0.1
2016-May-22 08:33N 53°36' E 000°25'0 0.0
2016-May-22 07:21N 53°36' E 000°25'0 0.0
2016-May-22 01:31N 53°36' E 000°25'0 0.0
2016-May-22 00:31N 53°36' E 000°25'0 0.0
2016-May-21 23:28N 53°36' E 000°25'0 0.0
2016-May-21 21:23N 53°36' E 000°25'0 0.0
2016-May-21 13:26N 53°36' E 000°25'0 0.0
2016-May-21 11:22N 53°36' E 000°25'0 0.0
2016-May-21 09:26N 53°36' E 000°25'30 6.0
2016-May-21 04:25N 53°18' E 001°04'14 7.1
2016-May-21 02:30N 53°09' E 001°23'9 9.6
2016-May-21 01:33N 53°04' E 001°35'10 9.6
2016-May-21 00:33N 52°59' E 001°49'9 9.3
2016-May-20 23:33N 52°55' E 002°02'25 6.1
2016-May-20 19:27N 52°32' E 002°17'67 6.5
2016-May-20 09:08N 51°37' E 003°22'5 8.2
2016-May-20 08:32N 51°33' E 003°25'7 7.4
2016-May-20 07:33N 51°27' E 003°32'7 7.1
2016-May-20 06:33N 51°24' E 003°43'9 8.9
2016-May-20 05:33N 51°24' E 003°57'7 7.4
2016-May-20 04:33N 51°23' E 004°09'8 8.2
2016-May-20 03:33N 51°17' E 004°19'2 1.7
2016-May-20 02:33N 51°16' E 004°21'2 2.4
2016-May-20 01:33N 51°16' E 004°24'0 0.0
2016-May-20 00:32N 51°16' E 004°24'0 0.0
2016-May-19 23:33N 51°16' E 004°24'1 1.0
2016-May-19 22:33N 51°15' E 004°24'4 4.1
2016-May-19 21:33N 51°14' E 004°31'5 3.3
2016-May-19 20:11N 51°12' E 004°37'  
2016-May-16 23:19N 51°12' E 004°36'3 1.9
2016-May-16 21:31N 51°14' E 004°31'1 0.7
2016-May-16 20:28N 51°14' E 004°30'3 3.1
2016-May-16 19:33N 51°14' E 004°26'1 1.3
2016-May-16 18:28N 51°15' E 004°24'0 0.0
2016-May-16 17:33N 51°15' E 004°24'0 0.0
2016-May-16 16:33N 51°15' E 004°24'0 0.0
2016-May-16 15:24N 51°15' E 004°24'0 0.0
2016-May-16 14:26N 51°15' E 004°24'0 0.0
2016-May-16 13:26N 51°15' E 004°24'0 0.0
2016-May-16 12:31N 51°15' E 004°24'0 0.0
2016-May-16 11:32N 51°15' E 004°24'0 0.0
2016-May-16 10:31N 51°15' E 004°24'0 0.0
2016-May-16 09:29N 51°15' E 004°24'0 0.0
2016-May-16 08:31N 51°15' E 004°24'0 0.0
2016-May-16 07:27N 51°15' E 004°24'0 0.0
2016-May-16 06:31N 51°15' E 004°24'0 0.0
2016-May-16 05:27N 51°15' E 004°24'0 0.0
2016-May-16 04:32N 51°15' E 004°24'0 0.0
2016-May-16 03:30N 51°15' E 004°24'0 0.0
2016-May-16 02:32N 51°15' E 004°24'0 0.0
2016-May-16 01:27N 51°15' E 004°24'0 0.0
2016-May-16 00:33N 51°15' E 004°24'0 0.0
2016-May-15 23:29N 51°15' E 004°24'0 0.0
2016-May-15 22:28N 51°15' E 004°24'0 0.0
2016-May-15 21:31N 51°15' E 004°24'0 0.0
2016-May-15 20:30N 51°15' E 004°24'0 0.0
2016-May-15 19:32N 51°15' E 004°24'0 0.0
2016-May-15 18:29N 51°15' E 004°24'0 0.0
2016-May-15 17:34N 51°15' E 004°24'0 0.0
2016-May-15 16:33N 51°15' E 004°24'0 0.0
2016-May-15 15:32N 51°15' E 004°24'0 0.0
2016-May-15 14:30N 51°15' E 004°24'0 0.0
2016-May-15 13:34N 51°15' E 004°24'0 0.0
2016-May-15 12:32N 51°15' E 004°24'0 0.0
2016-May-15 11:33N 51°15' E 004°24'0 0.0
2016-May-15 10:32N 51°15' E 004°24'0 0.0
2016-May-15 09:33N 51°15' E 004°24'0 0.0
2016-May-15 08:30N 51°15' E 004°24'0 0.0
2016-May-15 07:32N 51°15' E 004°24'0 0.0
2016-May-15 06:30N 51°15' E 004°24'0 0.0
2016-May-15 05:32N 51°15' E 004°24'0 0.0
2016-May-15 04:29N 51°15' E 004°24'0 0.0
2016-May-15 03:32N 51°15' E 004°24'0 0.0
2016-May-15 02:30N 51°15' E 004°24'0 0.0
2016-May-15 01:26N 51°15' E 004°24'0 0.0
2016-May-15 00:33N 51°15' E 004°24'0 0.0
2016-May-14 23:32N 51°15' E 004°24'0 0.0
2016-May-14 22:31N 51°15' E 004°24'0 0.0
2016-May-14 21:34N 51°15' E 004°24'3 3.0
2016-May-14 20:34N 51°17' E 004°20'0 0.0
2016-May-14 19:33N 51°17' E 004°20'5 4.6
2016-May-14 18:33N 51°20' E 004°16'7 7.4
2016-May-14 17:33N 51°22' E 004°05'6 5.6
2016-May-14 16:33N 51°22' E 003°56'9 8.8
2016-May-14 15:33N 51°24' E 003°42'9 9.3
2016-May-14 14:33N 51°25' E 003°27'7 7.6
2016-May-14 13:33N 51°23' E 003°15'8 6.9
2016-May-14 12:27N 51°22' E 003°03'8 7.4
2016-May-14 11:25N 51°21' E 002°51'6 5.7
2016-May-14 10:20N 51°21' E 002°41'3 4.0
2016-May-14 09:32N 51°21' E 002°36'3 3.0
2016-May-14 08:26N 51°22' E 002°30'3 2.7
2016-May-14 07:26N 51°21' E 002°26'6 4.1
2016-May-14 06:05N 51°18' E 002°18'11 7.4
2016-May-14 04:33N 51°13' E 002°03'7 6.9
2016-May-14 03:33N 51°09' E 001°53'6 6.1
2016-May-14 02:33N 51°06' E 001°45'5 5.1
2016-May-14 01:33N 51°02' E 001°40'5 4.3
2016-May-14 00:28N 50°58' E 001°35'4 4.2
2016-May-13 23:26N 50°55' E 001°30'  

Dump ship's entire track history